CYRJ

Details ICAO CYRJ (YRJ)
Name ROBERVAL
Region Canada
Timezone America/Montreal (UTC-4.0)
Plans Departing 28
Arriving 7
Stats Elevation 586 ft / 179 m (AMSL)
Location 48.520001° -72.265556°
Runways 1
Magnetic Variation 16.037° W
Sunrise 2018-05-25 08:58:40 UTC / 2018-05-25 04:58:40 Local
Sunset 2018-05-26 00:36:15 UTC / 2018-05-25 20:36:15 Local
Advertisement - Login to hide

Runways

ID Width Length Bearing (true) Bearing (mag) Surface Threshold Offset Overrun Length
16 150 ft / 46 m 5,096 ft / 1,553 m 142.69° 158.73° Asphalt 0 ft / 0 m 0 ft / 0 m
34 150 ft / 46 m 5,096 ft / 1,553 m 322.70° 338.74° Asphalt 0 ft / 0 m 0 ft / 0 m

Approach Navaids

Runway Type Ident Frequency Range Bearing (true) Bearing (mag) Slope Elevation
34 Localiser IRJ 110.30 MHz 18 nm / 33 km 321.20° 337.23° - 586 ft / 179 m (AMSL)

Map

Weather


0- 5 10 15 20 25 30 35+ Temperature / ° C

Clouds and Precipitation
Forecast for 2018-05-25 06:00 UTC. Updated 4 minutes ago

Ground ~20,000 ft ~40,000 ft Winds

METAR

CYRJ 250500Z 17008KT 20SM -SHRA SCT085 OVC100 09/07 A2967 RMK AC3AC5 PRESFR SLP054

TAF

TAF CYRJ 241938Z 2420/2502 10005KT P6SM FEW060 BKN100 TEMPO 2420/2422 P6SM -SHRA BKN050 OVC080 BECMG 2422/2424 24010KT RMK NXT FCST WILL BE ISSUED AT 251145Z

Frequencies

Tower 122.20 MHz MF
Warning: Do not use this data for real-world aviation or navigation. No guarantee of current accuracy is given.